Airfield :
LOGIN :

Register | Disclaimer

   EN    FR    IT 

 










Legend :    VFR   Marginal VFR   IFR   Intensive IFR   Very Intensive IFR
Visi :
Ceiling :
>= 8 km
>= 3000ft
5 to 8 km
1000 to 3000 ft
1500m to 5 km
500 to 1000 ft
800 to 1500m
200 to 500 ft
< 800m
< 200 ft
Symbols :   Thunderstorms  Fog  Heavy snow  Heavy precipitations  Wind > 20 kt
SIGMETs :     Misc.  Thunderstorms  Icing  Turbulence  Mountain Waves  Volcanic Ashes






- Airport Elevation : 19 ft
- IATA code : DJE


DTTJ - Djerba Zarzis

CURRENT METAR :
  • 072330Z 13005KT CAVOK 25/17 Q1014 NOSIG

EXPIRED METARs :
  • 072300Z 10005KT CAVOK 26/17 Q1015 NOSIG
  • 072230Z 13005KT CAVOK 26/17 Q1015 NOSIG
  • 072200Z 13007KT CAVOK 26/17 Q1014 NOSIG
  • 072130Z 13006KT CAVOK 26/16 Q1014 NOSIG
  • 072100Z 13007KT 100V160 CAVOK 26/16 Q1014 NOSIG
  • 072030Z 12007KT 090V150 CAVOK 27/16 Q1014 NOSIG

TAF TAF DTTJ
Valid from the 07 at 18:00 until the 08 at 18:00 UTC


071700Z 0718/0818 10010KT CAVOK
BECMG 0802/0804 VRB02KT
BECMG 0809/0811 06010KT
BECMG 0815/0817 12016KT



MET'MAP, your aeronautical weather chart ! - Copyright ORBIFLY December 2007 - Disclaimer

ORBIFLY MET'MAP TEAM :

Programming & Development : Alexandra Zaïnal
Concept & original design : Baudouin d'Aumeries
Assistance for programming : Marc-Olivier Méhu
Technical & hardware support : Manuel Goepfert

Contact : metmap@orbifly.com




SOURCES & CREDITS :

   NOAA